sensor_id;sensor_type;location;lat;lon;timestamp;pressure;altitude;pressure_sealevel;temperature;humidity
57847;BME280;43675;50.030;21.952;2024-02-04T00:00:46;98387.73;;;6.94;84.03
57847;BME280;43675;50.030;21.952;2024-02-04T00:03:32;98396.01;;;6.91;84.19
57847;BME280;43675;50.030;21.952;2024-02-04T00:05:59;98400.70;;;6.85;84.67
57847;BME280;43675;50.030;21.952;2024-02-04T00:08:25;98403.90;;;6.85;85.01
57847;BME280;43675;50.030;21.952;2024-02-04T00:10:59;98405.75;;;6.87;85.11
57847;BME280;43675;50.030;21.952;2024-02-04T00:13:26;98414.98;;;6.94;85.29
57847;BME280;43675;50.030;21.952;2024-02-04T00:15:53;98403.33;;;7.02;85.27
57847;BME280;43675;50.030;21.952;2024-02-04T00:18:20;98396.52;;;7.13;85.38
57847;BME280;43675;50.030;21.952;2024-02-04T00:20:46;98402.20;;;7.27;84.95
57847;BME280;43675;50.030;21.952;2024-02-04T00:23:14;98398.69;;;7.32;84.82
57847;BME280;43675;50.030;21.952;2024-02-04T00:25:40;98390.96;;;7.35;84.79
57847;BME280;43675;50.030;21.952;2024-02-04T00:28:08;98391.26;;;7.38;84.75
57847;BME280;43675;50.030;21.952;2024-02-04T00:30:35;98376.64;;;7.38;84.51
57847;BME280;43675;50.030;21.952;2024-02-04T00:33:02;98380.11;;;7.32;84.41
57847;BME280;43675;50.030;21.952;2024-02-04T00:35:30;98377.86;;;7.22;84.50
57847;BME280;43675;50.030;21.952;2024-02-04T00:37:57;98365.19;;;7.13;84.71
57847;BME280;43675;50.030;21.952;2024-02-04T00:40:23;98367.14;;;7.05;84.85
57847;BME280;43675;50.030;21.952;2024-02-04T00:42:51;98360.20;;;6.96;84.95
57847;BME280;43675;50.030;21.952;2024-02-04T00:45:18;98364.96;;;6.86;85.02
57847;BME280;43675;50.030;21.952;2024-02-04T00:47:45;98362.80;;;6.80;85.12
57847;BME280;43675;50.030;21.952;2024-02-04T00:50:12;98356.83;;;6.75;85.25
57847;BME280;43675;50.030;21.952;2024-02-04T00:52:39;98351.43;;;6.72;85.34
57847;BME280;43675;50.030;21.952;2024-02-04T00:55:06;98346.21;;;6.70;85.41
57847;BME280;43675;50.030;21.952;2024-02-04T00:57:33;98345.34;;;6.69;85.27
57847;BME280;43675;50.030;21.952;2024-02-04T01:00:00;98341.17;;;6.81;85.28
57847;BME280;43675;50.030;21.952;2024-02-04T01:02:27;98335.20;;;6.87;84.98
57847;BME280;43675;50.030;21.952;2024-02-04T01:04:55;98334.84;;;6.86;84.80
57847;BME280;43675;50.030;21.952;2024-02-04T01:07:28;98327.90;;;6.78;84.76
57847;BME280;43675;50.030;21.952;2024-02-04T01:10:01;98320.56;;;6.70;85.01
57847;BME280;43675;50.030;21.952;2024-02-04T01:12:29;98316.95;;;6.67;85.12
57847;BME280;43675;50.030;21.952;2024-02-04T01:14:56;98320.35;;;6.69;85.19
57847;BME280;43675;50.030;21.952;2024-02-04T01:17:23;98322.77;;;6.66;85.12
57847;BME280;43675;50.030;21.952;2024-02-04T01:19:54;98317.80;;;6.65;85.15
57847;BME280;43675;50.030;21.952;2024-02-04T01:22:21;98323.79;;;6.63;85.13
57847;BME280;43675;50.030;21.952;2024-02-04T01:24:48;98320.90;;;6.61;85.24
57847;BME280;43675;50.030;21.952;2024-02-04T01:27:15;98314.77;;;6.59;85.28
57847;BME280;43675;50.030;21.952;2024-02-04T01:29:42;98322.52;;;6.57;85.30
57847;BME280;43675;50.030;21.952;2024-02-04T01:32:10;98318.81;;;6.56;85.36
57847;BME280;43675;50.030;21.952;2024-02-04T01:34:38;98317.92;;;6.56;85.24
57847;BME280;43675;50.030;21.952;2024-02-04T01:37:06;98313.42;;;6.52;85.14
57847;BME280;43675;50.030;21.952;2024-02-04T01:39:32;98312.02;;;6.48;85.09
57847;BME280;43675;50.030;21.952;2024-02-04T01:41:59;98319.53;;;6.43;85.17
57847;BME280;43675;50.030;21.952;2024-02-04T01:44:26;98320.38;;;6.41;85.19
57847;BME280;43675;50.030;21.952;2024-02-04T01:46:54;98325.90;;;6.40;85.27
57847;BME280;43675;50.030;21.952;2024-02-04T01:49:22;98322.92;;;6.39;85.26
57847;BME280;43675;50.030;21.952;2024-02-04T01:51:49;98314.04;;;6.43;85.26
57847;BME280;43675;50.030;21.952;2024-02-04T01:54:15;98312.79;;;6.55;85.07
57847;BME280;43675;50.030;21.952;2024-02-04T01:56:43;98322.68;;;6.74;84.64
57847;BME280;43675;50.030;21.952;2024-02-04T01:59:12;98312.81;;;6.91;84.22
57847;BME280;43675;50.030;21.952;2024-02-04T02:01:39;98307.19;;;7.01;83.66
57847;BME280;43675;50.030;21.952;2024-02-04T02:04:07;98321.17;;;6.95;83.44
57847;BME280;43675;50.030;21.952;2024-02-04T02:06:34;98315.83;;;6.87;83.52
57847;BME280;43675;50.030;21.952;2024-02-04T02:09:07;98324.56;;;6.82;83.59
57847;BME280;43675;50.030;21.952;2024-02-04T02:11:41;98323.27;;;6.87;83.57
57847;BME280;43675;50.030;21.952;2024-02-04T02:14:20;98315.87;;;6.93;83.27
57847;BME280;43675;50.030;21.952;2024-02-04T02:16:49;98325.19;;;6.97;83.10
57847;BME280;43675;50.030;21.952;2024-02-04T02:22:09;98325.41;;;7.12;82.91
57847;BME280;43675;50.030;21.952;2024-02-04T02:24:42;98321.66;;;7.20;82.74
57847;BME280;43675;50.030;21.952;2024-02-04T02:27:08;98314.27;;;7.36;82.57
57847;BME280;43675;50.030;21.952;2024-02-04T02:29:35;98316.85;;;7.45;82.08
57847;BME280;43675;50.030;21.952;2024-02-04T02:32:03;98316.88;;;7.39;82.18
57847;BME280;43675;50.030;21.952;2024-02-04T02:34:30;98327.48;;;7.36;82.26
57847;BME280;43675;50.030;21.952;2024-02-04T02:37:29;98318.10;;;7.29;82.11
57847;BME280;43675;50.030;21.952;2024-02-04T02:40:21;98321.73;;;7.38;82.11
57847;BME280;43675;50.030;21.952;2024-02-04T02:42:51;98327.65;;;7.44;81.65
57847;BME280;43675;50.030;21.952;2024-02-04T02:45:19;98330.52;;;7.52;80.89
57847;BME280;43675;50.030;21.952;2024-02-04T02:47:49;98323.90;;;7.57;80.56
57847;BME280;43675;50.030;21.952;2024-02-04T02:50:17;98325.46;;;7.62;80.22
57847;BME280;43675;50.030;21.952;2024-02-04T02:52:44;98327.03;;;7.70;79.71
57847;BME280;43675;50.030;21.952;2024-02-04T02:55:11;98328.02;;;7.81;79.31
57847;BME280;43675;50.030;21.952;2024-02-04T02:57:38;98327.65;;;7.93;78.95
57847;BME280;43675;50.030;21.952;2024-02-04T03:00:12;98325.84;;;7.93;78.60
57847;BME280;43675;50.030;21.952;2024-02-04T03:02:38;98322.52;;;7.85;78.53
57847;BME280;43675;50.030;21.952;2024-02-04T03:05:05;98321.90;;;7.77;78.65
57847;BME280;43675;50.030;21.952;2024-02-04T03:07:39;98320.86;;;7.71;78.96
57847;BME280;43675;50.030;21.952;2024-02-04T03:10:09;98323.20;;;7.67;78.88
57847;BME280;43675;50.030;21.952;2024-02-04T03:12:36;98318.61;;;7.64;79.12
57847;BME280;43675;50.030;21.952;2024-02-04T03:15:09;98325.10;;;7.63;79.10
57847;BME280;43675;50.030;21.952;2024-02-04T03:17:36;98314.69;;;7.61;79.28
57847;BME280;43675;50.030;21.952;2024-02-04T03:20:05;98313.55;;;7.60;79.21
57847;BME280;43675;50.030;21.952;2024-02-04T03:22:31;98320.36;;;7.59;79.31
57847;BME280;43675;50.030;21.952;2024-02-04T03:25:06;98307.71;;;7.58;79.47
57847;BME280;43675;50.030;21.952;2024-02-04T03:27:32;98310.17;;;7.58;79.60
57847;BME280;43675;50.030;21.952;2024-02-04T03:29:59;98318.39;;;7.58;79.63
57847;BME280;43675;50.030;21.952;2024-02-04T03:32:26;98316.46;;;7.56;79.48
57847;BME280;43675;50.030;21.952;2024-02-04T03:34:53;98315.88;;;7.55;79.52
57847;BME280;43675;50.030;21.952;2024-02-04T03:37:20;98312.38;;;7.51;79.78
57847;BME280;43675;50.030;21.952;2024-02-04T03:39:46;98308.23;;;7.49;79.70
57847;BME280;43675;50.030;21.952;2024-02-04T03:42:13;98303.98;;;7.46;79.45
57847;BME280;43675;50.030;21.952;2024-02-04T03:44:39;98311.84;;;7.44;79.44
57847;BME280;43675;50.030;21.952;2024-02-04T03:47:12;98319.85;;;7.42;79.38
57847;BME280;43675;50.030;21.952;2024-02-04T03:49:40;98317.65;;;7.53;79.24
57847;BME280;43675;50.030;21.952;2024-02-04T03:52:06;98302.21;;;7.64;78.85
57847;BME280;43675;50.030;21.952;2024-02-04T03:54:34;98295.83;;;7.58;78.73
57847;BME280;43675;50.030;21.952;2024-02-04T03:57:00;98297.22;;;7.41;78.70
57847;BME280;43675;50.030;21.952;2024-02-04T03:59:34;98301.09;;;7.24;78.98
57847;BME280;43675;50.030;21.952;2024-02-04T04:02:00;98291.61;;;7.08;79.30
57847;BME280;43675;50.030;21.952;2024-02-04T04:04:27;98287.30;;;6.95;79.62
57847;BME280;43675;50.030;21.952;2024-02-04T04:06:54;98289.57;;;6.85;79.87
57847;BME280;43675;50.030;21.952;2024-02-04T04:09:21;98288.75;;;6.78;80.24
57847;BME280;43675;50.030;21.952;2024-02-04T04:11:55;98289.63;;;6.70;80.27
57847;BME280;43675;50.030;21.952;2024-02-04T04:17:03;98302.04;;;6.60;80.42
57847;BME280;43675;50.030;21.952;2024-02-04T04:19:29;98305.23;;;6.61;80.51
57847;BME280;43675;50.030;21.952;2024-02-04T04:21:56;98307.19;;;6.59;80.36
57847;BME280;43675;50.030;21.952;2024-02-04T04:24:30;98310.27;;;6.57;80.24
57847;BME280;43675;50.030;21.952;2024-02-04T04:27:00;98302.70;;;6.55;80.20
57847;BME280;43675;50.030;21.952;2024-02-04T04:29:27;98298.54;;;6.53;80.13
57847;BME280;43675;50.030;21.952;2024-02-04T04:31:54;98298.39;;;6.53;80.04
57847;BME280;43675;50.030;21.952;2024-02-04T04:34:21;98286.00;;;6.52;79.98
57847;BME280;43675;50.030;21.952;2024-02-04T04:36:48;98285.45;;;6.52;79.89
57847;BME280;43675;50.030;21.952;2024-02-04T04:39:15;98282.14;;;6.52;79.77
57847;BME280;43675;50.030;21.952;2024-02-04T04:41:44;98277.36;;;6.56;79.52
57847;BME280;43675;50.030;21.952;2024-02-04T04:44:10;98267.30;;;6.49;79.39
57847;BME280;43675;50.030;21.952;2024-02-04T04:46:44;98273.02;;;6.51;79.38
57847;BME280;43675;50.030;21.952;2024-02-04T04:49:11;98268.04;;;6.45;79.16
57847;BME280;43675;50.030;21.952;2024-02-04T04:51:47;98281.78;;;6.38;79.33
57847;BME280;43675;50.030;21.952;2024-02-04T04:54:14;98295.45;;;6.33;79.49
57847;BME280;43675;50.030;21.952;2024-02-04T04:56:41;98308.49;;;6.35;79.39
57847;BME280;43675;50.030;21.952;2024-02-04T04:59:11;98317.00;;;6.38;79.31
57847;BME280;43675;50.030;21.952;2024-02-04T05:01:45;98319.46;;;6.45;79.27
57847;BME280;43675;50.030;21.952;2024-02-04T05:04:12;98311.59;;;6.54;79.12
57847;BME280;43675;50.030;21.952;2024-02-04T05:06:38;98307.95;;;6.57;78.74
57847;BME280;43675;50.030;21.952;2024-02-04T05:09:06;98308.56;;;6.55;78.69
57847;BME280;43675;50.030;21.952;2024-02-04T05:11:36;98311.70;;;6.52;78.68
57847;BME280;43675;50.030;21.952;2024-02-04T05:14:03;98302.68;;;6.53;78.81
57847;BME280;43675;50.030;21.952;2024-02-04T05:16:31;98299.57;;;6.52;78.83
57847;BME280;43675;50.030;21.952;2024-02-04T05:19:00;98296.51;;;6.48;78.73
57847;BME280;43675;50.030;21.952;2024-02-04T05:21:27;98304.27;;;6.42;78.84
57847;BME280;43675;50.030;21.952;2024-02-04T05:23:57;98315.19;;;6.36;79.02
57847;BME280;43675;50.030;21.952;2024-02-04T05:26:24;98316.95;;;6.36;79.27
57847;BME280;43675;50.030;21.952;2024-02-04T05:28:58;98330.42;;;6.46;79.11
57847;BME280;43675;50.030;21.952;2024-02-04T05:31:42;98318.39;;;6.51;79.07
57847;BME280;43675;50.030;21.952;2024-02-04T05:34:09;98327.66;;;6.59;78.71
57847;BME280;43675;50.030;21.952;2024-02-04T05:36:36;98326.39;;;6.69;78.40
57847;BME280;43675;50.030;21.952;2024-02-04T05:39:11;98320.61;;;6.71;77.97
57847;BME280;43675;50.030;21.952;2024-02-04T05:41:39;98316.10;;;6.70;77.83
57847;BME280;43675;50.030;21.952;2024-02-04T05:44:07;98316.64;;;6.63;77.52
57847;BME280;43675;50.030;21.952;2024-02-04T05:46:35;98314.95;;;6.45;77.37
57847;BME280;43675;50.030;21.952;2024-02-04T05:49:05;98327.75;;;6.25;77.87
57847;BME280;43675;50.030;21.952;2024-02-04T05:51:37;98331.23;;;6.09;78.12
57847;BME280;43675;50.030;21.952;2024-02-04T05:54:05;98330.73;;;5.98;78.58
57847;BME280;43675;50.030;21.952;2024-02-04T05:56:32;98322.49;;;5.90;78.81
57847;BME280;43675;50.030;21.952;2024-02-04T05:59:00;98320.02;;;5.87;78.97
57847;BME280;43675;50.030;21.952;2024-02-04T06:01:27;98318.27;;;5.86;79.24
57847;BME280;43675;50.030;21.952;2024-02-04T06:03:54;98329.07;;;5.84;79.22
57847;BME280;43675;50.030;21.952;2024-02-04T06:06:24;98332.26;;;5.83;79.23
57847;BME280;43675;50.030;21.952;2024-02-04T06:08:55;98331.20;;;5.82;79.36
57847;BME280;43675;50.030;21.952;2024-02-04T06:11:25;98329.73;;;5.82;79.59
57847;BME280;43675;50.030;21.952;2024-02-04T06:13:54;98337.55;;;5.85;79.84
57847;BME280;43675;50.030;21.952;2024-02-04T06:16:25;98348.48;;;5.92;79.96
57847;BME280;43675;50.030;21.952;2024-02-04T06:18:52;98338.90;;;6.02;79.72
57847;BME280;43675;50.030;21.952;2024-02-04T06:21:19;98339.48;;;6.10;79.68
57847;BME280;43675;50.030;21.952;2024-02-04T06:23:48;98351.66;;;6.14;79.50
57847;BME280;43675;50.030;21.952;2024-02-04T06:26:15;98355.12;;;6.12;79.42
57847;BME280;43675;50.030;21.952;2024-02-04T06:28:43;98354.91;;;6.11;79.61
57847;BME280;43675;50.030;21.952;2024-02-04T06:31:17;98345.17;;;6.25;79.66
57847;BME280;43675;50.030;21.952;2024-02-04T06:33:43;98340.86;;;6.42;79.34
57847;BME280;43675;50.030;21.952;2024-02-04T06:36:11;98341.86;;;6.55;78.98
57847;BME280;43675;50.030;21.952;2024-02-04T06:38:38;98340.73;;;6.54;78.84
57847;BME280;43675;50.030;21.952;2024-02-04T06:41:05;98349.50;;;6.48;78.57
57847;BME280;43675;50.030;21.952;2024-02-04T06:43:33;98355.06;;;6.39;78.52
57847;BME280;43675;50.030;21.952;2024-02-04T06:46:00;98353.88;;;6.32;78.71
57847;BME280;43675;50.030;21.952;2024-02-04T06:48:30;98360.24;;;6.30;78.98
57847;BME280;43675;50.030;21.952;2024-02-04T06:50:58;98349.91;;;6.27;78.91
57847;BME280;43675;50.030;21.952;2024-02-04T06:53:26;98350.32;;;6.24;79.11
57847;BME280;43675;50.030;21.952;2024-02-04T06:55:53;98358.08;;;6.18;79.20
57847;BME280;43675;50.030;21.952;2024-02-04T06:58:20;98368.80;;;6.15;79.38
57847;BME280;43675;50.030;21.952;2024-02-04T07:00:49;98382.27;;;6.14;79.37
57847;BME280;43675;50.030;21.952;2024-02-04T07:03:16;98396.77;;;6.17;78.40
57847;BME280;43675;50.030;21.952;2024-02-04T07:05:43;98397.21;;;6.28;77.98
57847;BME280;43675;50.030;21.952;2024-02-04T07:08:11;98398.34;;;6.42;76.95
57847;BME280;43675;50.030;21.952;2024-02-04T07:10:41;98387.08;;;6.56;75.32
57847;BME280;43675;50.030;21.952;2024-02-04T07:13:08;98391.31;;;6.66;74.36
57847;BME280;43675;50.030;21.952;2024-02-04T07:15:35;98405.74;;;6.62;74.21
57847;BME280;43675;50.030;21.952;2024-02-04T07:18:02;98416.11;;;6.51;75.03
57847;BME280;43675;50.030;21.952;2024-02-04T07:20:30;98420.10;;;6.41;75.66
57847;BME280;43675;50.030;21.952;2024-02-04T07:22:57;98423.09;;;6.44;76.12
57847;BME280;43675;50.030;21.952;2024-02-04T07:25:24;98429.71;;;6.42;76.38
57847;BME280;43675;50.030;21.952;2024-02-04T07:27:58;98432.20;;;6.41;76.84
57847;BME280;43675;50.030;21.952;2024-02-04T07:30:32;98434.27;;;6.43;77.41
57847;BME280;43675;50.030;21.952;2024-02-04T07:32:58;98439.27;;;6.30;77.49
57847;BME280;43675;50.030;21.952;2024-02-04T07:35:26;98440.95;;;6.12;78.18
57847;BME280;43675;50.030;21.952;2024-02-04T07:37:55;98447.21;;;6.01;78.55
57847;BME280;43675;50.030;21.952;2024-02-04T07:40:26;98450.65;;;5.89;78.79
57847;BME280;43675;50.030;21.952;2024-02-04T07:42:55;98452.29;;;5.79;79.02
57847;BME280;43675;50.030;21.952;2024-02-04T07:45:25;98442.44;;;5.69;79.18
57847;BME280;43675;50.030;21.952;2024-02-04T07:47:55;98434.91;;;5.63;79.58
57847;BME280;43675;50.030;21.952;2024-02-04T07:50:26;98424.56;;;5.63;79.70
57847;BME280;43675;50.030;21.952;2024-02-04T07:52:53;98420.21;;;5.66;79.76
57847;BME280;43675;50.030;21.952;2024-02-04T07:55:20;98424.30;;;5.71;79.65
57847;BME280;43675;50.030;21.952;2024-02-04T07:57:46;98418.05;;;5.87;79.54
57847;BME280;43675;50.030;21.952;2024-02-04T08:00:13;98411.45;;;6.04;79.04
57847;BME280;43675;50.030;21.952;2024-02-04T08:02:47;98411.79;;;6.14;78.70
57847;BME280;43675;50.030;21.952;2024-02-04T08:05:14;98412.04;;;6.09;78.80
57847;BME280;43675;50.030;21.952;2024-02-04T08:07:42;98406.19;;;6.06;78.99
57847;BME280;43675;50.030;21.952;2024-02-04T08:10:09;98414.04;;;6.04;79.27
57847;BME280;43675;50.030;21.952;2024-02-04T08:12:36;98415.53;;;5.93;79.88
57847;BME280;43675;50.030;21.952;2024-02-04T08:15:03;98414.34;;;5.77;80.45
57847;BME280;43675;50.030;21.952;2024-02-04T08:17:30;98421.44;;;5.67;80.96
57847;BME280;43675;50.030;21.952;2024-02-04T08:19:57;98422.02;;;5.76;81.25
57847;BME280;43675;50.030;21.952;2024-02-04T08:22:24;98420.52;;;5.91;81.21
57847;BME280;43675;50.030;21.952;2024-02-04T08:24:51;98417.02;;;6.02;80.96
57847;BME280;43675;50.030;21.952;2024-02-04T08:27:18;98407.96;;;6.12;80.54
57847;BME280;43675;50.030;21.952;2024-02-04T08:29:45;98407.86;;;6.25;80.24
57847;BME280;43675;50.030;21.952;2024-02-04T08:32:11;98402.42;;;6.33;79.95
57847;BME280;43675;50.030;21.952;2024-02-04T08:34:38;98395.88;;;6.41;79.61
57847;BME280;43675;50.030;21.952;2024-02-04T08:37:05;98403.50;;;6.54;79.60
57847;BME280;43675;50.030;21.952;2024-02-04T08:39:32;98406.94;;;6.66;79.58
57847;BME280;43675;50.030;21.952;2024-02-04T08:41:59;98400.07;;;6.68;79.58
57847;BME280;43675;50.030;21.952;2024-02-04T08:44:25;98403.84;;;6.75;80.04
57847;BME280;43675;50.030;21.952;2024-02-04T08:46:52;98404.79;;;6.84;80.12
57847;BME280;43675;50.030;21.952;2024-02-04T08:49:19;98398.62;;;6.95;80.22
57847;BME280;43675;50.030;21.952;2024-02-04T08:51:45;98392.10;;;7.06;80.04
57847;BME280;43675;50.030;21.952;2024-02-04T08:54:12;98381.00;;;7.15;79.86
57847;BME280;43675;50.030;21.952;2024-02-04T08:56:39;98388.64;;;7.36;79.32
57847;BME280;43675;50.030;21.952;2024-02-04T08:59:12;98380.70;;;7.50;78.04
57847;BME280;43675;50.030;21.952;2024-02-04T09:01:39;98384.73;;;7.51;77.71
57847;BME280;43675;50.030;21.952;2024-02-04T09:04:06;98384.28;;;7.54;77.00
57847;BME280;43675;50.030;21.952;2024-02-04T09:06:33;98387.34;;;7.59;76.73
57847;BME280;43675;50.030;21.952;2024-02-04T09:09:00;98397.81;;;7.58;76.10
57847;BME280;43675;50.030;21.952;2024-02-04T09:11:27;98389.22;;;7.52;75.47
57847;BME280;43675;50.030;21.952;2024-02-04T09:13:54;98382.15;;;7.41;75.78
57847;BME280;43675;50.030;21.952;2024-02-04T09:16:21;98383.60;;;7.31;76.03
57847;BME280;43675;50.030;21.952;2024-02-04T09:18:54;98387.17;;;7.29;76.08
57847;BME280;43675;50.030;21.952;2024-02-04T09:21:21;98388.11;;;7.30;76.23
57847;BME280;43675;50.030;21.952;2024-02-04T09:23:48;98388.23;;;7.30;76.08
57847;BME280;43675;50.030;21.952;2024-02-04T09:26:15;98398.66;;;7.29;75.88
57847;BME280;43675;50.030;21.952;2024-02-04T09:28:42;98405.70;;;7.20;75.38
57847;BME280;43675;50.030;21.952;2024-02-04T09:31:09;98402.74;;;7.21;75.40
57847;BME280;43675;50.030;21.952;2024-02-04T09:33:36;98403.08;;;7.21;75.48
57847;BME280;43675;50.030;21.952;2024-02-04T09:36:03;98406.59;;;7.08;75.81
57847;BME280;43675;50.030;21.952;2024-02-04T09:38:30;98415.20;;;6.88;76.20
57847;BME280;43675;50.030;21.952;2024-02-04T09:40:56;98423.32;;;6.73;76.92
57847;BME280;43675;50.030;21.952;2024-02-04T09:43:24;98415.15;;;6.67;77.49
57847;BME280;43675;50.030;21.952;2024-02-04T09:45:51;98414.84;;;6.67;77.85
57847;BME280;43675;50.030;21.952;2024-02-04T09:48:19;98413.21;;;6.62;78.00
57847;BME280;43675;50.030;21.952;2024-02-04T09:50:47;98413.30;;;6.60;78.24
57847;BME280;43675;50.030;21.952;2024-02-04T09:53:18;98413.24;;;6.55;78.03
57847;BME280;43675;50.030;21.952;2024-02-04T09:55:49;98418.73;;;6.48;78.10
57847;BME280;43675;50.030;21.952;2024-02-04T09:58:17;98415.60;;;6.40;77.93
57847;BME280;43675;50.030;21.952;2024-02-04T10:00:46;98403.30;;;6.32;78.09
57847;BME280;43675;50.030;21.952;2024-02-04T10:03:14;98406.42;;;6.24;78.36
57847;BME280;43675;50.030;21.952;2024-02-04T10:05:40;98400.15;;;6.30;78.63
57847;BME280;43675;50.030;21.952;2024-02-04T10:08:14;98384.81;;;6.43;78.55
57847;BME280;43675;50.030;21.952;2024-02-04T10:10:41;98383.23;;;6.56;78.20
57847;BME280;43675;50.030;21.952;2024-02-04T10:13:08;98373.29;;;6.63;77.53
57847;BME280;43675;50.030;21.952;2024-02-04T10:15:42;98363.82;;;6.62;77.26
57847;BME280;43675;50.030;21.952;2024-02-04T10:18:09;98368.90;;;6.57;77.37
57847;BME280;43675;50.030;21.952;2024-02-04T10:20:36;98369.73;;;6.63;77.52
57847;BME280;43675;50.030;21.952;2024-02-04T10:23:04;98368.36;;;6.70;77.67
57847;BME280;43675;50.030;21.952;2024-02-04T10:25:31;98366.34;;;6.83;77.71
57847;BME280;43675;50.030;21.952;2024-02-04T10:27:57;98361.10;;;7.06;77.25
57847;BME280;43675;50.030;21.952;2024-02-04T10:30:24;98357.46;;;7.23;76.21
57847;BME280;43675;50.030;21.952;2024-02-04T10:32:52;98363.82;;;7.38;75.92
57847;BME280;43675;50.030;21.952;2024-02-04T10:35:23;98371.31;;;7.57;74.99
57847;BME280;43675;50.030;21.952;2024-02-04T10:37:56;98371.35;;;7.56;73.73
57847;BME280;43675;50.030;21.952;2024-02-04T10:40:23;98362.33;;;7.49;73.39
57847;BME280;43675;50.030;21.952;2024-02-04T10:42:50;98355.35;;;7.47;73.32
57847;BME280;43675;50.030;21.952;2024-02-04T10:45:21;98353.05;;;7.47;73.08
57847;BME280;43675;50.030;21.952;2024-02-04T10:47:56;98346.44;;;7.50;72.72
57847;BME280;43675;50.030;21.952;2024-02-04T10:50:25;98344.91;;;7.68;71.88
57847;BME280;43675;50.030;21.952;2024-02-04T10:52:56;98342.12;;;7.91;71.15
57847;BME280;43675;50.030;21.952;2024-02-04T10:55:48;98338.54;;;8.16;70.48
57847;BME280;43675;50.030;21.952;2024-02-04T10:58:15;98343.03;;;8.38;68.84
57847;BME280;43675;50.030;21.952;2024-02-04T11:00:54;98338.89;;;8.47;68.04
57847;BME280;43675;50.030;21.952;2024-02-04T11:03:24;98333.30;;;8.49;66.08
57847;BME280;43675;50.030;21.952;2024-02-04T11:05:52;98322.50;;;8.55;66.30
57847;BME280;43675;50.030;21.952;2024-02-04T11:08:19;98327.13;;;8.62;66.02
57847;BME280;43675;50.030;21.952;2024-02-04T11:10:48;98328.65;;;8.60;65.28
57847;BME280;43675;50.030;21.952;2024-02-04T11:13:15;98330.33;;;8.50;64.94
57847;BME280;43675;50.030;21.952;2024-02-04T11:15:43;98316.62;;;8.34;64.65
57847;BME280;43675;50.030;21.952;2024-02-04T11:18:46;98328.82;;;8.20;64.94
57847;BME280;43675;50.030;21.952;2024-02-04T11:26:59;98345.27;;;7.69;67.12
57847;BME280;43675;50.030;21.952;2024-02-04T11:29:29;98345.52;;;7.53;67.21
57847;BME280;43675;50.030;21.952;2024-02-04T11:31:56;98351.77;;;7.44;67.15
57847;BME280;43675;50.030;21.952;2024-02-04T11:34:23;98351.67;;;7.39;67.18
57847;BME280;43675;50.030;21.952;2024-02-04T11:36:50;98343.80;;;7.31;67.71
57847;BME280;43675;50.030;21.952;2024-02-04T11:39:18;98347.55;;;7.32;67.42
57847;BME280;43675;50.030;21.952;2024-02-04T11:41:46;98340.69;;;7.28;67.09
57847;BME280;43675;50.030;21.952;2024-02-04T11:44:20;98340.57;;;7.28;66.93
57847;BME280;43675;50.030;21.952;2024-02-04T11:46:48;98333.57;;;7.45;66.21
57847;BME280;43675;50.030;21.952;2024-02-04T11:49:15;98319.28;;;7.50;65.44
57847;BME280;43675;50.030;21.952;2024-02-04T11:51:51;98320.70;;;7.41;65.67
57847;BME280;43675;50.030;21.952;2024-02-04T11:54:19;98314.54;;;7.31;65.85
57847;BME280;43675;50.030;21.952;2024-02-04T11:56:49;98311.06;;;7.27;66.00
57847;BME280;43675;50.030;21.952;2024-02-04T11:59:16;98307.96;;;7.30;66.50
57847;BME280;43675;50.030;21.952;2024-02-04T12:01:42;98315.84;;;7.48;65.78
57847;BME280;43675;50.030;21.952;2024-02-04T12:04:16;98312.97;;;7.68;65.68
57847;BME280;43675;50.030;21.952;2024-02-04T12:06:43;98304.92;;;7.80;65.26
57847;BME280;43675;50.030;21.952;2024-02-04T12:09:10;98302.83;;;7.77;64.91
57847;BME280;43675;50.030;21.952;2024-02-04T12:11:37;98300.42;;;7.76;65.02
57847;BME280;43675;50.030;21.952;2024-02-04T12:14:05;98299.83;;;7.72;64.50
57847;BME280;43675;50.030;21.952;2024-02-04T12:16:33;98297.85;;;7.70;64.25
57847;BME280;43675;50.030;21.952;2024-02-04T12:19:00;98296.05;;;7.74;64.40
57847;BME280;43675;50.030;21.952;2024-02-04T12:21:27;98288.45;;;7.79;64.46
57847;BME280;43675;50.030;21.952;2024-02-04T12:23:54;98292.52;;;7.80;64.03
57847;BME280;43675;50.030;21.952;2024-02-04T12:26:25;98285.84;;;7.79;63.93
57847;BME280;43675;50.030;21.952;2024-02-04T12:28:52;98286.09;;;7.93;63.65
57847;BME280;43675;50.030;21.952;2024-02-04T12:31:19;98279.30;;;8.05;62.72
57847;BME280;43675;50.030;21.952;2024-02-04T12:33:54;98282.30;;;8.04;62.29
57847;BME280;43675;50.030;21.952;2024-02-04T12:36:21;98273.33;;;8.05;62.62
57847;BME280;43675;50.030;21.952;2024-02-04T12:38:52;98274.02;;;8.18;62.65
57847;BME280;43675;50.030;21.952;2024-02-04T12:41:19;98268.41;;;8.27;62.38
57847;BME280;43675;50.030;21.952;2024-02-04T12:43:50;98268.98;;;8.36;62.20
57847;BME280;43675;50.030;21.952;2024-02-04T12:46:18;98276.17;;;8.50;61.46
57847;BME280;43675;50.030;21.952;2024-02-04T12:48:50;98269.77;;;8.63;59.23
57847;BME280;43675;50.030;21.952;2024-02-04T12:51:31;98274.63;;;8.70;58.36
57847;BME280;43675;50.030;21.952;2024-02-04T12:54:11;98266.08;;;8.85;58.12
57847;BME280;43675;50.030;21.952;2024-02-04T12:56:50;98246.86;;;9.05;56.81
57847;BME280;43675;50.030;21.952;2024-02-04T13:01:55;98245.48;;;9.23;55.78
57847;BME280;43675;50.030;21.952;2024-02-04T13:04:22;98243.86;;;9.28;55.25
57847;BME280;43675;50.030;21.952;2024-02-04T13:06:50;98239.19;;;9.15;54.79
57847;BME280;43675;50.030;21.952;2024-02-04T13:09:17;98237.23;;;9.11;55.12
57847;BME280;43675;50.030;21.952;2024-02-04T13:11:44;98229.63;;;9.09;54.49
57847;BME280;43675;50.030;21.952;2024-02-04T13:14:11;98230.44;;;8.91;54.33
57847;BME280;43675;50.030;21.952;2024-02-04T13:16:37;98228.02;;;8.67;54.18
57847;BME280;43675;50.030;21.952;2024-02-04T13:19:04;98222.30;;;8.45;54.50
57847;BME280;43675;50.030;21.952;2024-02-04T13:21:31;98220.49;;;8.28;55.14